Time;durP1;ratioP1;P1;durP2;ratioP2;P2;SDS_P1;SDS_P2;PMS_P1;PMS_P2;Temp;Humidity;BMP_temperature;BMP_pressure;BME280_temperature;BME280_humidity;BME280_pressure;Samples;Min_cycle;Max_cycle;Signal;HPM_P1;HPM_P2
2021/08/11 00:00:26;;;;;;;7.20;5.03;;;;;;;;;;1486245;40;20418;-85
2021/08/11 00:01:29;;;;;;;6.88;5.38;;;;;;;;;;1482112;40;20439;-85
2021/08/11 00:02:31;;;;;;;8.65;5.47;;;;;;;;;;1474034;40;20852;-84
2021/08/11 00:03:33;;;;;;;8.02;5.20;;;;;;;;;;1473956;40;20415;-85
2021/08/11 00:04:34;;;;;;;10.50;5.47;;;;;;;;;;1472053;40;20546;-84
2021/08/11 00:05:36;;;;;;;8.88;5.53;;;;;;;;;;1472767;40;20423;-85
2021/08/11 00:06:39;;;;;;;9.88;5.10;;;;;;;;;;1477503;40;20464;-84
2021/08/11 00:07:40;;;;;;;7.70;5.35;;;;;;;;;;1478741;40;20414;-84
2021/08/11 00:08:46;;;;;;;7.80;6.20;;;;;;;;;;1481759;40;20428;-84
2021/08/11 00:09:48;;;;;;;6.95;5.32;;;;;;;;;;1482137;40;20531;-85
2021/08/11 00:10:49;;;;;;;9.35;5.32;;;;;;;;;;1482080;40;20865;-85
2021/08/11 00:11:51;;;;;;;8.18;6.07;;;;;;;;;;1472919;40;20404;-85
2021/08/11 00:12:53;;;;;;;7.28;5.57;;;;;;;;;;1478751;40;20484;-85
2021/08/11 00:13:55;;;;;;;6.43;5.32;;;;;;;;;;1488532;40;20412;-84
2021/08/11 00:14:58;;;;;;;8.32;5.93;;;;;;;;;;1483014;40;20491;-85
2021/08/11 00:15:59;;;;;;;9.02;5.93;;;;;;;;;;1474405;40;20534;-84
2021/08/11 00:17:01;;;;;;;10.88;6.43;;;;;;;;;;1474563;40;20431;-85
2021/08/11 00:18:04;;;;;;;10.32;6.15;;;;;;;;;;1478792;40;20402;-84
2021/08/11 00:19:05;;;;;;;7.85;5.95;;;;;;;;;;1474319;40;20952;-84
2021/08/11 00:20:09;;;;;;;8.83;6.20;;;;;;;;;;1475264;40;20408;-85
2021/08/11 00:21:11;;;;;;;10.07;5.97;;;;;;;;;;1475829;40;20411;-85
2021/08/11 00:22:13;;;;;;;9.07;6.28;;;;;;;;;;1479014;40;20421;-85
2021/08/11 00:23:15;;;;;;;12.10;6.50;;;;;;;;;;1474302;40;20869;-84
2021/08/11 00:24:17;;;;;;;9.48;6.32;;;;;;;;;;1473457;40;20416;-84
2021/08/11 00:25:18;;;;;;;7.55;6.60;;;;;;;;;;1478366;40;21017;-84
2021/08/11 00:26:20;;;;;;;11.98;6.85;;;;;;;;;;1478032;40;20458;-84
2021/08/11 00:27:21;;;;;;;12.25;6.97;;;;;;;;;;1478019;40;20833;-84
2021/08/11 00:28:24;;;;;;;8.98;6.47;;;;;;;;;;1482256;40;20503;-85
2021/08/11 00:29:25;;;;;;;11.60;6.82;;;;;;;;;;1487211;40;20419;-84
2021/08/11 00:30:27;;;;;;;10.57;6.80;;;;;;;;;;1481956;40;20408;-84
2021/08/11 00:31:30;;;;;;;12.98;7.13;;;;;;;;;;1482675;40;20389;-84
2021/08/11 00:32:32;;;;;;;10.60;7.65;;;;;;;;;;1482575;40;20806;-84
2021/08/11 00:33:33;;;;;;;13.48;7.63;;;;;;;;;;1481854;40;20818;-84
2021/08/11 00:34:35;;;;;;;13.75;8.35;;;;;;;;;;1482310;40;20781;-84
2021/08/11 00:35:37;;;;;;;11.52;8.00;;;;;;;;;;1487356;40;20407;-84
2021/08/11 00:36:38;;;;;;;13.88;8.35;;;;;;;;;;1481312;40;20543;-85
2021/08/11 00:37:40;;;;;;;11.45;7.55;;;;;;;;;;1480738;40;20835;-84
2021/08/11 00:38:41;;;;;;;9.75;7.32;;;;;;;;;;1485043;40;20837;-83
2021/08/11 00:39:45;;;;;;;13.77;7.72;;;;;;;;;;1483815;40;20513;-83
2021/08/11 00:40:46;;;;;;;11.55;8.02;;;;;;;;;;1482976;40;20408;-83
2021/08/11 00:41:48;;;;;;;10.40;7.50;;;;;;;;;;1480250;40;20537;-84
2021/08/11 00:42:50;;;;;;;9.95;7.43;;;;;;;;;;1477954;40;20464;-83
2021/08/11 00:43:53;;;;;;;11.65;7.22;;;;;;;;;;1478538;40;20408;-84
2021/08/11 00:44:55;;;;;;;9.90;7.50;;;;;;;;;;1477234;40;20412;-84
2021/08/11 00:45:57;;;;;;;10.00;8.05;;;;;;;;;;1469027;40;20526;-83
2021/08/11 00:46:59;;;;;;;10.23;7.53;;;;;;;;;;1476915;40;20419;-83
2021/08/11 00:48:01;;;;;;;10.23;7.40;;;;;;;;;;1483054;40;20641;-84
2021/08/11 00:49:03;;;;;;;10.90;7.30;;;;;;;;;;1478967;40;20423;-83
2021/08/11 00:50:06;;;;;;;10.35;8.07;;;;;;;;;;1483455;40;20507;-84
2021/08/11 00:51:08;;;;;;;9.02;7.47;;;;;;;;;;1482616;40;20418;-84
2021/08/11 00:52:10;;;;;;;11.40;7.97;;;;;;;;;;1484280;40;20448;-84
2021/08/11 00:53:15;;;;;;;10.93;8.02;;;;;;;;;;1485537;40;20420;-84
2021/08/11 00:54:17;;;;;;;9.98;7.57;;;;;;;;;;1485386;40;20461;-83
2021/08/11 00:55:20;;;;;;;8.77;7.50;;;;;;;;;;1488778;40;20398;-83
2021/08/11 00:56:22;;;;;;;8.85;7.18;;;;;;;;;;1482908;40;20420;-84
2021/08/11 00:57:26;;;;;;;9.65;8.10;;;;;;;;;;1478320;40;20799;-83
2021/08/11 00:58:29;;;;;;;9.45;8.13;;;;;;;;;;1482413;40;20458;-84
2021/08/11 00:59:36;;;;;;;14.02;9.40;;;;;;;;;;1486822;40;20421;-84
2021/08/11 01:00:47;;;;;;;11.13;8.45;;;;;;;;;;1486816;40;20520;-84
2021/08/11 01:01:50;;;;;;;13.13;7.68;;;;;;;;;;1483651;39;20650;-83
2021/08/11 01:02:53;;;;;;;13.05;9.02;;;;;;;;;;1482288;40;20661;-84
2021/08/11 01:03:57;;;;;;;12.68;8.35;;;;;;;;;;1481446;40;20396;-84
2021/08/11 01:05:00;;;;;;;13.35;7.90;;;;;;;;;;1481943;40;20408;-84
2021/08/11 01:06:02;;;;;;;13.57;9.05;;;;;;;;;;1482436;40;20544;-83
2021/08/11 01:07:05;;;;;;;11.77;8.45;;;;;;;;;;1482729;40;20433;-83
2021/08/11 01:08:07;;;;;;;11.88;8.10;;;;;;;;;;1484041;40;20490;-83
2021/08/11 01:09:12;;;;;;;9.02;8.13;;;;;;;;;;1486543;40;20431;-83
2021/08/11 01:10:15;;;;;;;14.20;8.50;;;;;;;;;;1486083;40;20436;-82
2021/08/11 01:11:17;;;;;;;11.00;8.13;;;;;;;;;;1485318;40;20473;-82
2021/08/11 01:12:25;;;;;;;14.73;8.45;;;;;;;;;;1486553;40;20464;-82
2021/08/11 01:13:28;;;;;;;9.57;8.63;;;;;;;;;;1486871;40;20400;-83
2021/08/11 01:14:31;;;;;;;11.73;8.68;;;;;;;;;;1486047;39;20450;-83
2021/08/11 01:15:33;;;;;;;10.35;8.75;;;;;;;;;;1487513;40;20787;-83
2021/08/11 01:16:35;;;;;;;12.50;9.47;;;;;;;;;;1482893;40;20452;-83
2021/08/11 01:17:36;;;;;;;12.55;8.85;;;;;;;;;;1478843;40;20499;-82
2021/08/11 01:18:38;;;;;;;13.20;8.85;;;;;;;;;;1481841;40;20494;-84
2021/08/11 01:19:40;;;;;;;10.70;8.50;;;;;;;;;;1481960;40;20467;-83
2021/08/11 01:20:56;;;;;;;13.48;8.88;;;;;;;;;;1481994;40;20498;-84
2021/08/11 01:22:03;;;;;;;15.35;9.70;;;;;;;;;;1486204;40;20426;-83
2021/08/11 01:23:10;;;;;;;10.55;8.98;;;;;;;;;;1486324;40;20602;-83
2021/08/11 01:24:57;;;;;;;9.48;8.52;;;;;;;;;;1486689;40;20414;-83
2021/08/11 01:26:15;;;;;;;11.60;8.82;;;;;;;;;;1481824;40;20400;-83
2021/08/11 01:27:23;;;;;;;12.45;9.38;;;;;;;;;;1478101;40;20459;-84
2021/08/11 01:28:43;;;;;;;11.45;8.85;;;;;;;;;;1478191;40;20509;-84
2021/08/11 01:29:58;;;;;;;12.10;9.20;;;;;;;;;;1477721;40;20383;-84
2021/08/11 01:31:23;;;;;;;14.85;9.82;;;;;;;;;;1478810;40;20411;-84
2021/08/11 01:32:50;;;;;;;12.35;10.18;;;;;;;;;;1482436;40;20401;-84
2021/08/11 01:33:58;;;;;;;13.82;10.65;;;;;;;;;;1482435;40;20752;-83
2021/08/11 01:35:02;;;;;;;17.52;11.45;;;;;;;;;;1482704;40;20428;-84
2021/08/11 01:36:17;;;;;;;15.80;10.25;;;;;;;;;;1482797;40;20459;-84
2021/08/11 01:37:27;;;;;;;15.93;11.05;;;;;;;;;;1477666;40;20414;-84
2021/08/11 01:38:34;;;;;;;14.40;11.27;;;;;;;;;;1479314;40;20438;-85
2021/08/11 01:39:41;;;;;;;18.30;11.30;;;;;;;;;;1478245;40;20414;-84
2021/08/11 01:40:55;;;;;;;16.75;11.30;;;;;;;;;;1475818;40;20416;-84
2021/08/11 01:42:05;;;;;;;14.00;11.20;;;;;;;;;;1476298;40;20415;-84
2021/08/11 01:43:07;;;;;;;14.63;10.73;;;;;;;;;;1480040;40;20518;-84
2021/08/11 01:44:09;;;;;;;17.10;11.55;;;;;;;;;;1475614;40;20456;-84
2021/08/11 01:45:34;;;;;;;12.98;11.13;;;;;;;;;;1475873;40;20411;-84
2021/08/11 01:46:40;;;;;;;15.30;11.77;;;;;;;;;;1479190;40;20648;-84
2021/08/11 01:47:54;;;;;;;17.63;11.98;;;;;;;;;;1479815;40;20401;-84
2021/08/11 01:48:59;;;;;;;15.95;11.38;;;;;;;;;;1481896;40;20471;-84
2021/08/11 01:50:01;;;;;;;17.10;12.32;;;;;;;;;;1480749;40;20405;-83
2021/08/11 01:51:03;;;;;;;15.38;11.85;;;;;;;;;;1479663;40;20466;-84
2021/08/11 01:52:06;;;;;;;14.88;11.35;;;;;;;;;;1482555;40;20423;-84
2021/08/11 01:53:11;;;;;;;14.43;11.32;;;;;;;;;;1479205;40;20421;-84
2021/08/11 01:54:13;;;;;;;17.25;12.07;;;;;;;;;;1482962;40;20873;-84
2021/08/11 01:55:16;;;;;;;15.82;12.02;;;;;;;;;;1482332;40;20904;-84
2021/08/11 01:56:19;;;;;;;18.08;12.30;;;;;;;;;;1478197;40;20471;-84
2021/08/11 01:57:21;;;;;;;15.05;11.10;;;;;;;;;;1478798;40;20580;-83
2021/08/11 01:58:25;;;;;;;17.38;12.07;;;;;;;;;;1482174;40;20460;-83
2021/08/11 01:59:26;;;;;;;13.73;11.00;;;;;;;;;;1482591;40;20413;-84
2021/08/11 02:00:28;;;;;;;14.98;11.40;;;;;;;;;;1482436;40;20931;-85
2021/08/11 02:01:30;;;;;;;14.45;11.45;;;;;;;;;;1482452;40;20405;-84
2021/08/11 02:02:35;;;;;;;15.43;11.77;;;;;;;;;;1482987;40;20387;-87
2021/08/11 02:03:38;;;;;;;13.07;10.82;;;;;;;;;;1478582;40;20407;-86
2021/08/11 02:04:41;;;;;;;16.92;11.07;;;;;;;;;;1474886;40;20427;-89
2021/08/11 02:05:44;;;;;;;14.85;11.68;;;;;;;;;;1474836;40;20419;-87
2021/08/11 02:06:47;;;;;;;15.32;11.85;;;;;;;;;;1474566;40;20527;-86
2021/08/11 02:07:49;;;;;;;15.52;10.98;;;;;;;;;;1467536;40;20704;-87
2021/08/11 02:08:51;;;;;;;16.25;11.30;;;;;;;;;;1470215;40;20512;-88
2021/08/11 02:09:53;;;;;;;18.00;11.40;;;;;;;;;;1474713;40;20407;-86
2021/08/11 02:10:58;;;;;;;14.68;11.13;;;;;;;;;;1475791;40;20493;-89
2021/08/11 02:12:00;;;;;;;14.63;11.45;;;;;;;;;;1478845;40;20414;-86
2021/08/11 02:13:01;;;;;;;13.10;10.65;;;;;;;;;;1478151;40;20431;-88
2021/08/11 02:14:04;;;;;;;20.10;10.98;;;;;;;;;;1478717;40;20437;-89
2021/08/11 02:15:08;;;;;;;14.43;10.70;;;;;;;;;;1483912;40;20566;-89
2021/08/11 02:16:10;;;;;;;13.30;10.02;;;;;;;;;;1483451;39;21022;-88
2021/08/11 02:17:11;;;;;;;18.80;10.15;;;;;;;;;;1477362;40;20402;-88
2021/08/11 02:18:13;;;;;;;14.77;10.52;;;;;;;;;;1474336;40;21113;-88
2021/08/11 02:19:15;;;;;;;14.38;11.10;;;;;;;;;;1474293;40;20481;-83
2021/08/11 02:20:17;;;;;;;14.77;10.45;;;;;;;;;;1478495;40;20450;-84
2021/08/11 02:21:20;;;;;;;14.38;10.27;;;;;;;;;;1482109;40;20477;-85
2021/08/11 02:22:21;;;;;;;13.75;10.48;;;;;;;;;;1478308;40;20761;-84
2021/08/11 02:23:23;;;;;;;13.40;10.63;;;;;;;;;;1482177;40;20416;-84
2021/08/11 02:24:25;;;;;;;13.13;10.20;;;;;;;;;;1482338;40;20463;-84
2021/08/11 02:25:26;;;;;;;17.90;10.48;;;;;;;;;;1482237;40;20904;-85
2021/08/11 02:26:41;;;;;;;18.08;11.57;;;;;;;;;;1477978;40;21016;-83
2021/08/11 02:27:56;;;;;;;17.65;10.45;;;;;;;;;;1476135;40;20497;-84
2021/08/11 02:29:31;;;;;;;15.70;10.63;;;;;;;;;;1482584;40;20416;-84
2021/08/11 02:30:45;;;;;;;14.75;10.02;;;;;;;;;;1486659;40;20442;-84
2021/08/11 02:32:02;;;;;;;15.52;10.70;;;;;;;;;;1486841;40;20383;-84
2021/08/11 02:33:16;;;;;;;17.10;10.60;;;;;;;;;;1482054;40;20998;-83
2021/08/11 02:34:26;;;;;;;16.20;10.90;;;;;;;;;;1483286;40;20497;-84
2021/08/11 02:35:43;;;;;;;14.23;11.35;;;;;;;;;;1482395;40;20440;-84
2021/08/11 02:36:55;;;;;;;12.63;10.33;;;;;;;;;;1482531;40;21169;-84
2021/08/11 02:38:24;;;;;;;16.50;10.05;;;;;;;;;;1483338;40;20409;-85
2021/08/11 02:39:31;;;;;;;17.10;10.27;;;;;;;;;;1486786;40;20796;-84
2021/08/11 02:41:00;;;;;;;15.98;10.40;;;;;;;;;;1486944;40;20815;-84
2021/08/11 02:42:08;;;;;;;14.70;11.07;;;;;;;;;;1486525;39;21293;-84
2021/08/11 02:43:30;;;;;;;16.23;11.52;;;;;;;;;;1482357;40;20396;-84
2021/08/11 02:44:40;;;;;;;14.75;9.90;;;;;;;;;;1483822;40;20824;-84
2021/08/11 02:45:44;;;;;;;13.57;11.02;;;;;;;;;;1486653;40;20422;-84
2021/08/11 02:46:49;;;;;;;15.88;9.88;;;;;;;;;;1482248;40;20439;-84
2021/08/11 02:48:00;;;;;;;16.23;10.77;;;;;;;;;;1483629;40;20538;-93
2021/08/11 02:49:06;;;;;;;13.77;9.38;;;;;;;;;;1483491;39;20405;-87
2021/08/11 02:50:09;;;;;;;14.02;10.00;;;;;;;;;;1487247;40;20423;-89
2021/08/11 02:51:11;;;;;;;13.40;8.95;;;;;;;;;;1482506;40;20457;-86
2021/08/11 02:52:13;;;;;;;14.32;9.10;;;;;;;;;;1482730;40;20416;-86
2021/08/11 02:53:16;;;;;;;12.93;9.52;;;;;;;;;;1478476;40;20474;-88
2021/08/11 02:54:20;;;;;;;11.13;9.02;;;;;;;;;;1477596;40;20581;-88
2021/08/11 02:55:22;;;;;;;15.40;9.02;;;;;;;;;;1482444;40;20412;-88
2021/08/11 02:56:23;;;;;;;12.63;9.52;;;;;;;;;;1483250;40;20405;-89
2021/08/11 02:57:25;;;;;;;14.70;9.47;;;;;;;;;;1479698;40;20543;-89
2021/08/11 02:58:28;;;;;;;17.63;9.63;;;;;;;;;;1479546;40;20398;-91
2021/08/11 02:59:30;;;;;;;12.25;9.38;;;;;;;;;;1483599;40;20442;-89
2021/08/11 03:00:32;;;;;;;15.63;10.05;;;;;;;;;;1478804;40;20434;-85
2021/08/11 03:01:34;;;;;;;13.02;9.68;;;;;;;;;;1476422;40;20400;-85
2021/08/11 03:02:37;;;;;;;13.68;10.05;;;;;;;;;;1478566;40;20465;-84
2021/08/11 03:03:40;;;;;;;13.73;10.23;;;;;;;;;;1478181;40;20414;-85
2021/08/11 03:04:42;;;;;;;13.38;9.82;;;;;;;;;;1478468;40;20501;-85
2021/08/11 03:05:45;;;;;;;17.00;9.70;;;;;;;;;;1473925;40;20443;-84
2021/08/11 03:06:47;;;;;;;14.30;10.48;;;;;;;;;;1477093;40;20418;-84
2021/08/11 03:07:49;;;;;;;11.63;9.82;;;;;;;;;;1481955;40;20423;-84
2021/08/11 03:08:51;;;;;;;15.03;9.50;;;;;;;;;;1482381;40;20553;-84
2021/08/11 03:09:53;;;;;;;17.17;9.85;;;;;;;;;;1482855;40;20460;-84
2021/08/11 03:10:55;;;;;;;17.13;10.85;;;;;;;;;;1482843;40;20883;-84
2021/08/11 03:11:58;;;;;;;12.10;10.20;;;;;;;;;;1477954;40;20438;-84
2021/08/11 03:13:00;;;;;;;16.33;10.48;;;;;;;;;;1478326;40;20450;-84
2021/08/11 03:14:06;;;;;;;11.63;9.70;;;;;;;;;;1482908;40;20408;-85
2021/08/11 03:15:09;;;;;;;13.57;9.27;;;;;;;;;;1482644;40;20555;-84
2021/08/11 03:16:11;;;;;;;11.52;9.70;;;;;;;;;;1486515;40;20410;-84
2021/08/11 03:17:13;;;;;;;15.93;10.38;;;;;;;;;;1487663;40;20406;-83
2021/08/11 03:18:15;;;;;;;18.33;10.45;;;;;;;;;;1484129;40;20506;-85
2021/08/11 03:19:17;;;;;;;15.25;10.48;;;;;;;;;;1482489;40;20419;-84
2021/08/11 03:20:19;;;;;;;16.70;10.45;;;;;;;;;;1474393;40;20890;-84
2021/08/11 03:21:21;;;;;;;14.00;9.73;;;;;;;;;;1476025;40;20433;-84
2021/08/11 03:22:22;;;;;;;18.90;10.88;;;;;;;;;;1487025;40;20457;-84
2021/08/11 03:23:24;;;;;;;20.73;11.02;;;;;;;;;;1483087;40;20574;-84
2021/08/11 03:24:25;;;;;;;18.13;11.15;;;;;;;;;;1486876;40;20837;-84
2021/08/11 03:25:27;;;;;;;16.17;11.38;;;;;;;;;;1485148;40;20845;-84
2021/08/11 03:26:28;;;;;;;15.95;10.23;;;;;;;;;;1485340;40;20885;-83
2021/08/11 03:27:30;;;;;;;15.30;11.13;;;;;;;;;;1490662;40;20767;-84
2021/08/11 03:28:32;;;;;;;19.15;11.00;;;;;;;;;;1487415;40;20456;-84
2021/08/11 03:29:34;;;;;;;18.33;10.80;;;;;;;;;;1487465;40;20441;-83
2021/08/11 03:30:36;;;;;;;21.50;11.18;;;;;;;;;;1491784;40;20410;-83
2021/08/11 03:31:38;;;;;;;15.95;10.98;;;;;;;;;;1493066;39;20445;-82
2021/08/11 03:32:39;;;;;;;17.92;11.18;;;;;;;;;;1494778;39;20822;-84
2021/08/11 03:33:41;;;;;;;19.55;11.60;;;;;;;;;;1493827;39;20924;-84
2021/08/11 03:34:43;;;;;;;17.70;11.35;;;;;;;;;;1492012;39;20734;-83
2021/08/11 03:35:44;;;;;;;18.23;11.80;;;;;;;;;;1491787;39;20671;-83
2021/08/11 03:36:46;;;;;;;19.52;11.57;;;;;;;;;;1486961;40;20417;-83
2021/08/11 03:37:48;;;;;;;19.70;12.40;;;;;;;;;;1482481;40;20484;-83
2021/08/11 03:38:49;;;;;;;14.45;11.65;;;;;;;;;;1482635;40;20452;-83
2021/08/11 03:39:51;;;;;;;15.93;11.40;;;;;;;;;;1482013;40;20468;-83
2021/08/11 03:40:53;;;;;;;16.95;11.82;;;;;;;;;;1480112;40;20463;-83
2021/08/11 03:41:54;;;;;;;16.60;12.25;;;;;;;;;;1483256;40;20413;-83
2021/08/11 03:42:56;;;;;;;18.42;11.38;;;;;;;;;;1487523;40;20466;-82
2021/08/11 03:43:57;;;;;;;18.25;12.55;;;;;;;;;;1487870;40;20444;-83
2021/08/11 03:44:59;;;;;;;21.38;12.63;;;;;;;;;;1483478;40;20667;-82
2021/08/11 03:46:01;;;;;;;18.67;12.55;;;;;;;;;;1487868;40;20416;-82
2021/08/11 03:47:03;;;;;;;15.98;12.23;;;;;;;;;;1490069;40;20411;-83
2021/08/11 03:48:05;;;;;;;21.23;12.65;;;;;;;;;;1488864;40;20474;-83
2021/08/11 03:49:06;;;;;;;15.68;11.80;;;;;;;;;;1483375;40;20456;-83
2021/08/11 03:50:16;;;;;;;20.40;12.57;;;;;;;;;;1479693;40;20479;-83
2021/08/11 03:51:18;;;;;;;18.85;11.48;;;;;;;;;;1484628;40;20456;-83
2021/08/11 03:52:19;;;;;;;21.73;12.63;;;;;;;;;;1479289;40;20410;-83
2021/08/11 03:53:21;;;;;;;16.73;12.32;;;;;;;;;;1475366;40;20833;-83
2021/08/11 03:54:22;;;;;;;17.88;12.57;;;;;;;;;;1478192;40;20882;-83
2021/08/11 03:55:29;;;;;;;15.88;11.73;;;;;;;;;;1482430;40;20809;-84
2021/08/11 03:56:31;;;;;;;18.60;13.13;;;;;;;;;;1477580;40;20414;-83
2021/08/11 03:57:33;;;;;;;19.70;12.95;;;;;;;;;;1479100;40;20417;-83
2021/08/11 03:58:34;;;;;;;20.58;12.80;;;;;;;;;;1483173;40;20431;-83
2021/08/11 03:59:38;;;;;;;22.05;13.25;;;;;;;;;;1478023;40;20402;-83
2021/08/11 04:00:41;;;;;;;18.52;12.38;;;;;;;;;;1478386;40;20519;-84
2021/08/11 04:01:43;;;;;;;22.52;13.88;;;;;;;;;;1482639;40;20405;-84
2021/08/11 04:02:45;;;;;;;16.85;11.98;;;;;;;;;;1482108;40;20397;-83
2021/08/11 04:03:47;;;;;;;17.55;12.70;;;;;;;;;;1482604;40;20393;-83
2021/08/11 04:04:49;;;;;;;17.50;12.02;;;;;;;;;;1486944;40;20418;-85
2021/08/11 04:05:50;;;;;;;20.20;12.15;;;;;;;;;;1487358;40;20406;-85
2021/08/11 04:06:52;;;;;;;15.30;11.00;;;;;;;;;;1481627;40;20400;-85
2021/08/11 04:07:54;;;;;;;18.83;11.70;;;;;;;;;;1482521;40;20408;-84
2021/08/11 04:08:55;;;;;;;17.75;11.80;;;;;;;;;;1484436;39;20398;-84
2021/08/11 04:09:57;;;;;;;17.92;12.10;;;;;;;;;;1482161;40;20816;-84
2021/08/11 04:10:58;;;;;;;15.53;11.83;;;;;;;;;;1469746;40;20929;-84
2021/08/11 04:12:00;;;;;;;20.17;11.32;;;;;;;;;;1470298;40;20598;-85
2021/08/11 04:13:02;;;;;;;18.60;12.00;;;;;;;;;;1482281;40;21289;-84
2021/08/11 04:14:03;;;;;;;18.50;11.52;;;;;;;;;;1478254;40;20986;-84
2021/08/11 04:15:06;;;;;;;16.65;11.25;;;;;;;;;;1478397;40;20491;-84
2021/08/11 04:16:08;;;;;;;16.67;11.30;;;;;;;;;;1478545;40;20418;-84
2021/08/11 04:17:11;;;;;;;15.40;11.35;;;;;;;;;;1478389;40;20473;-84
2021/08/11 04:18:15;;;;;;;14.67;11.63;;;;;;;;;;1478586;40;20406;-84
2021/08/11 04:19:17;;;;;;;18.20;12.13;;;;;;;;;;1474435;40;20554;-84
2021/08/11 04:20:20;;;;;;;16.52;11.30;;;;;;;;;;1478570;40;20422;-84
2021/08/11 04:21:21;;;;;;;17.95;11.23;;;;;;;;;;1478029;40;20405;-84
2021/08/11 04:22:23;;;;;;;17.48;11.48;;;;;;;;;;1478854;40;20436;-85
2021/08/11 04:23:27;;;;;;;13.50;11.10;;;;;;;;;;1482736;40;20425;-85
2021/08/11 04:24:28;;;;;;;17.17;12.27;;;;;;;;;;1473972;40;20471;-85
2021/08/11 04:25:30;;;;;;;18.83;11.85;;;;;;;;;;1476593;40;20443;-85
2021/08/11 04:26:32;;;;;;;15.63;11.75;;;;;;;;;;1488612;40;20474;-84
2021/08/11 04:27:34;;;;;;;16.90;12.10;;;;;;;;;;1484719;40;20460;-84
2021/08/11 04:28:35;;;;;;;15.25;11.13;;;;;;;;;;1475574;40;20474;-85
2021/08/11 04:29:37;;;;;;;18.88;12.48;;;;;;;;;;1479522;40;20705;-85
2021/08/11 04:30:40;;;;;;;21.23;12.57;;;;;;;;;;1483207;40;20408;-84
2021/08/11 04:31:42;;;;;;;19.75;12.32;;;;;;;;;;1479675;40;21132;-85
2021/08/11 04:32:44;;;;;;;17.48;12.05;;;;;;;;;;1483074;40;20463;-84
2021/08/11 04:33:45;;;;;;;20.65;12.40;;;;;;;;;;1487400;39;20407;-84
2021/08/11 04:34:47;;;;;;;18.85;11.80;;;;;;;;;;1489046;40;20407;-84
2021/08/11 04:35:49;;;;;;;18.05;12.43;;;;;;;;;;1481362;40;20799;-84
2021/08/11 04:36:50;;;;;;;15.82;12.10;;;;;;;;;;1480924;40;20473;-85
2021/08/11 04:37:52;;;;;;;19.20;12.57;;;;;;;;;;1487979;40;20442;-84
2021/08/11 04:38:53;;;;;;;17.83;12.02;;;;;;;;;;1479294;40;20487;-84
2021/08/11 04:39:55;;;;;;;20.88;12.48;;;;;;;;;;1479586;40;20410;-85
2021/08/11 04:40:57;;;;;;;17.97;12.23;;;;;;;;;;1483498;40;20545;-84
2021/08/11 04:41:58;;;;;;;19.00;12.55;;;;;;;;;;1475187;40;20462;-84
2021/08/11 04:43:00;;;;;;;16.33;11.45;;;;;;;;;;1479077;40;20414;-84
2021/08/11 04:44:03;;;;;;;19.95;12.02;;;;;;;;;;1474861;40;20435;-84
2021/08/11 04:45:06;;;;;;;17.48;12.48;;;;;;;;;;1470849;40;21078;-84
2021/08/11 04:46:07;;;;;;;16.25;11.13;;;;;;;;;;1481166;40;20421;-84
2021/08/11 04:47:09;;;;;;;18.38;11.80;;;;;;;;;;1482728;40;20411;-84
2021/08/11 04:48:11;;;;;;;20.30;12.18;;;;;;;;;;1478514;40;20493;-84
2021/08/11 04:49:12;;;;;;;17.90;12.43;;;;;;;;;;1482329;40;20769;-85
2021/08/11 04:50:14;;;;;;;16.52;12.02;;;;;;;;;;1482358;40;20507;-84
2021/08/11 04:51:16;;;;;;;13.65;12.02;;;;;;;;;;1477712;40;20744;-85
2021/08/11 04:52:17;;;;;;;17.65;12.93;;;;;;;;;;1473297;40;20461;-84
2021/08/11 04:53:19;;;;;;;16.42;11.95;;;;;;;;;;1469410;40;20534;-84
2021/08/11 04:54:20;;;;;;;14.40;12.30;;;;;;;;;;1473859;40;20422;-84
2021/08/11 04:55:22;;;;;;;14.93;12.00;;;;;;;;;;1478155;40;20540;-84
2021/08/11 04:56:23;;;;;;;18.15;12.07;;;;;;;;;;1478025;40;20479;-85
2021/08/11 04:57:25;;;;;;;16.83;11.95;;;;;;;;;;1482654;40;20456;-84
2021/08/11 04:58:27;;;;;;;16.17;12.07;;;;;;;;;;1481249;40;20850;-84
2021/08/11 04:59:28;;;;;;;17.73;11.90;;;;;;;;;;1474248;40;20442;-84
2021/08/11 05:00:30;;;;;;;15.88;11.63;;;;;;;;;;1474785;40;20404;-84
2021/08/11 05:01:31;;;;;;;17.65;12.52;;;;;;;;;;1482840;40;20910;-84
2021/08/11 05:02:33;;;;;;;19.10;12.55;;;;;;;;;;1478297;40;20402;-84
2021/08/11 05:03:36;;;;;;;18.88;12.40;;;;;;;;;;1478553;40;20409;-84
2021/08/11 05:04:39;;;;;;;17.67;12.13;;;;;;;;;;1477862;40;20481;-83
2021/08/11 05:05:41;;;;;;;18.08;13.20;;;;;;;;;;1474426;40;20448;-84
2021/08/11 05:06:43;;;;;;;17.15;12.48;;;;;;;;;;1478484;40;20450;-84
2021/08/11 05:07:44;;;;;;;16.63;13.15;;;;;;;;;;1477494;40;20399;-84
2021/08/11 05:08:46;;;;;;;19.58;12.98;;;;;;;;;;1478248;40;20406;-84
2021/08/11 05:09:48;;;;;;;16.08;12.90;;;;;;;;;;1477638;40;20900;-85
2021/08/11 05:10:49;;;;;;;17.63;12.70;;;;;;;;;;1477615;40;20422;-84
2021/08/11 05:11:51;;;;;;;17.05;13.40;;;;;;;;;;1477724;40;20796;-84
2021/08/11 05:12:53;;;;;;;18.60;13.57;;;;;;;;;;1473880;40;20459;-84
2021/08/11 05:13:55;;;;;;;17.00;12.35;;;;;;;;;;1478176;40;20716;-85
2021/08/11 05:14:57;;;;;;;18.13;12.63;;;;;;;;;;1482783;40;20397;-84
2021/08/11 05:15:59;;;;;;;24.83;13.63;;;;;;;;;;1474249;40;20490;-84
2021/08/11 05:17:01;;;;;;;19.33;13.07;;;;;;;;;;1474375;40;20558;-84
2021/08/11 05:18:02;;;;;;;16.52;13.25;;;;;;;;;;1478388;40;20402;-85
2021/08/11 05:19:04;;;;;;;19.88;13.30;;;;;;;;;;1474138;40;20729;-84
2021/08/11 05:20:07;;;;;;;21.20;14.03;;;;;;;;;;1475036;40;20470;-86
2021/08/11 05:21:08;;;;;;;19.05;13.52;;;;;;;;;;1482228;40;20462;-86
2021/08/11 05:22:10;;;;;;;16.17;13.32;;;;;;;;;;1482317;40;20452;-86
2021/08/11 05:23:15;;;;;;;16.33;12.60;;;;;;;;;;1481724;40;20701;-86
2021/08/11 05:24:17;;;;;;;19.90;13.80;;;;;;;;;;1474355;40;20569;-86
2021/08/11 05:25:19;;;;;;;22.00;13.45;;;;;;;;;;1480302;39;20449;-86
2021/08/11 05:26:21;;;;;;;19.98;13.70;;;;;;;;;;1484191;40;20416;-87
2021/08/11 05:27:22;;;;;;;21.27;13.15;;;;;;;;;;1477876;40;20534;-86
2021/08/11 05:28:24;;;;;;;22.63;13.95;;;;;;;;;;1469944;40;20548;-86
2021/08/11 05:29:27;;;;;;;19.58;13.85;;;;;;;;;;1474078;40;20475;-86
2021/08/11 05:30:30;;;;;;;22.75;13.65;;;;;;;;;;1477952;40;20422;-86
2021/08/11 05:31:31;;;;;;;22.35;14.38;;;;;;;;;;1470979;40;20482;-85
2021/08/11 05:32:33;;;;;;;20.02;13.43;;;;;;;;;;1470797;40;20409;-86
2021/08/11 05:33:35;;;;;;;18.33;13.85;;;;;;;;;;1478603;40;20417;-87
2021/08/11 05:34:37;;;;;;;19.48;13.82;;;;;;;;;;1478495;40;20546;-87
2021/08/11 05:35:38;;;;;;;22.38;13.85;;;;;;;;;;1483223;40;20408;-87
2021/08/11 05:36:44;;;;;;;23.38;12.77;;;;;;;;;;1481097;40;20415;-85
2021/08/11 05:37:46;;;;;;;18.95;13.90;;;;;;;;;;1478790;40;20778;-85
2021/08/11 05:38:48;;;;;;;19.63;13.07;;;;;;;;;;1474120;40;20810;-86
2021/08/11 05:39:51;;;;;;;18.85;13.52;;;;;;;;;;1470292;40;20453;-85
2021/08/11 05:40:52;;;;;;;19.85;13.80;;;;;;;;;;1474523;40;20412;-87
2021/08/11 05:41:55;;;;;;;20.17;12.57;;;;;;;;;;1478474;40;20453;-88
2021/08/11 05:42:56;;;;;;;21.13;13.40;;;;;;;;;;1478475;40;20422;-87
2021/08/11 05:43:59;;;;;;;22.08;13.27;;;;;;;;;;1474847;40;21085;-87
2021/08/11 05:45:01;;;;;;;21.42;13.95;;;;;;;;;;1472327;40;20429;-88
2021/08/11 05:46:05;;;;;;;20.73;12.90;;;;;;;;;;1477995;40;20402;-87
2021/08/11 05:47:08;;;;;;;20.70;14.13;;;;;;;;;;1479678;40;20421;-87
2021/08/11 05:48:09;;;;;;;18.08;12.48;;;;;;;;;;1481985;39;20401;-87
2021/08/11 05:49:12;;;;;;;20.80;13.88;;;;;;;;;;1482639;40;20473;-87
2021/08/11 05:50:14;;;;;;;23.42;12.75;;;;;;;;;;1484637;40;20423;-87
2021/08/11 05:51:15;;;;;;;26.20;14.15;;;;;;;;;;1482458;40;20424;-87
2021/08/11 05:52:17;;;;;;;20.55;13.93;;;;;;;;;;1475323;40;20923;-87
2021/08/11 05:53:19;;;;;;;23.58;13.98;;;;;;;;;;1479425;40;20464;-87
2021/08/11 05:54:20;;;;;;;22.45;14.32;;;;;;;;;;1483554;40;20420;-86
2021/08/11 05:55:22;;;;;;;22.52;13.80;;;;;;;;;;1484320;40;20689;-86
2021/08/11 05:56:24;;;;;;;22.52;14.27;;;;;;;;;;1480404;40;20791;-87
2021/08/11 05:57:26;;;;;;;21.30;14.13;;;;;;;;;;1476696;40;20404;-86
2021/08/11 05:58:28;;;;;;;22.70;14.32;;;;;;;;;;1481553;40;20840;-86
2021/08/11 05:59:30;;;;;;;20.20;13.85;;;;;;;;;;1480962;40;20806;-87
2021/08/11 06:00:31;;;;;;;26.20;15.05;;;;;;;;;;1482318;40;20751;-87
2021/08/11 06:01:33;;;;;;;23.65;14.98;;;;;;;;;;1478172;40;20459;-86
2021/08/11 06:02:40;;;;;;;24.15;14.60;;;;;;;;;;1478862;40;20405;-86
2021/08/11 06:03:42;;;;;;;23.63;14.73;;;;;;;;;;1480011;40;20450;-86
2021/08/11 06:04:44;;;;;;;23.45;14.50;;;;;;;;;;1476725;40;20401;-87
2021/08/11 06:05:45;;;;;;;24.42;15.50;;;;;;;;;;1484251;40;20405;-85
2021/08/11 06:06:47;;;;;;;23.08;15.70;;;;;;;;;;1488005;39;20670;-87
2021/08/11 06:07:49;;;;;;;22.40;14.90;;;;;;;;;;1487643;40;20464;-86
2021/08/11 06:08:50;;;;;;;24.25;15.60;;;;;;;;;;1480356;40;20499;-86
2021/08/11 06:09:52;;;;;;;23.70;15.38;;;;;;;;;;1484650;40;20476;-86
2021/08/11 06:10:54;;;;;;;21.33;15.48;;;;;;;;;;1480162;40;20388;-86
2021/08/11 06:11:55;;;;;;;26.10;14.73;;;;;;;;;;1480055;40;20427;-87